Winterport, Maine
Current Conditions -  °F | °C
As of 7:53 AM on Friday 24 Oct 2014 (Local Time) from KBGR Reporting Station
Light Rain Light Rain  
Wind Chill: 39°   Ceiling: 900
Heat Index: 45°   Visibility: 10mi
Dew Point: 43°   Wind: 13mph
Humidity: 93%   Direction: 360°N
Pressure: 29.68"   Gusts: NA
Location:  44.65°N, 68.86°W
Report Text: KBGR 241153Z 36011KT 10SM -RA OVC009 07/06 A2968 RMK AO2 SLP052 P0002 60012 70177 T00720061 10083 20072 55000
Loading
Personal Weather Stations






























Interactive Weather Map
Tropical Storm Tracking
New forecast layout! Learn more

10-Day Weather Forecast

Advertisements
Track Severe Weather on mobile